sensor_id;sensor_type;location;lat;lon;timestamp;P1;durP1;ratioP1;P2;durP2;ratioP2
5414;SDS011;2730;51.512;7.504;2022-12-18T06:00:17;28.23;;;10.18;;
5414;SDS011;2730;51.512;7.504;2022-12-18T06:02:46;25.05;;;11.70;;
5414;SDS011;2730;51.512;7.504;2022-12-18T06:05:13;31.13;;;12.07;;
5414;SDS011;2730;51.512;7.504;2022-12-18T06:07:40;29.25;;;13.50;;
5414;SDS011;2730;51.512;7.504;2022-12-18T06:10:07;29.65;;;11.82;;
5414;SDS011;2730;51.512;7.504;2022-12-18T06:12:37;26.83;;;12.18;;
5414;SDS011;2730;51.512;7.504;2022-12-18T06:15:05;31.83;;;12.45;;
5414;SDS011;2730;51.512;7.504;2022-12-18T06:17:33;30.60;;;13.30;;
5414;SDS011;2730;51.512;7.504;2022-12-18T06:20:01;25.25;;;11.73;;
5414;SDS011;2730;51.512;7.504;2022-12-18T06:22:30;25.83;;;11.18;;
5414;SDS011;2730;51.512;7.504;2022-12-18T06:24:57;23.90;;;11.20;;
5414;SDS011;2730;51.512;7.504;2022-12-18T06:27:30;31.33;;;11.85;;
5414;SDS011;2730;51.512;7.504;2022-12-18T06:29:58;21.73;;;9.52;;
5414;SDS011;2730;51.512;7.504;2022-12-18T06:32:25;29.50;;;10.50;;
5414;SDS011;2730;51.512;7.504;2022-12-18T06:34:53;28.73;;;12.68;;
5414;SDS011;2730;51.512;7.504;2022-12-18T06:37:20;19.73;;;11.48;;
5414;SDS011;2730;51.512;7.504;2022-12-18T06:39:49;18.92;;;9.48;;
5414;SDS011;2730;51.512;7.504;2022-12-18T06:42:16;20.83;;;9.45;;
5414;SDS011;2730;51.512;7.504;2022-12-18T06:44:43;23.85;;;10.93;;
5414;SDS011;2730;51.512;7.504;2022-12-18T06:47:10;29.95;;;11.20;;
5414;SDS011;2730;51.512;7.504;2022-12-18T06:49:36;18.38;;;9.65;;
5414;SDS011;2730;51.512;7.504;2022-12-18T06:52:04;17.13;;;9.73;;
5414;SDS011;2730;51.512;7.504;2022-12-18T06:54:31;21.80;;;8.57;;
5414;SDS011;2730;51.512;7.504;2022-12-18T06:56:58;24.55;;;10.90;;
5414;SDS011;2730;51.512;7.504;2022-12-18T06:59:25;25.98;;;9.18;;
5414;SDS011;2730;51.512;7.504;2022-12-18T07:01:52;20.42;;;8.40;;
5414;SDS011;2730;51.512;7.504;2022-12-18T07:04:18;16.77;;;7.95;;
5414;SDS011;2730;51.512;7.504;2022-12-18T07:06:45;14.85;;;6.97;;
5414;SDS011;2730;51.512;7.504;2022-12-18T07:09:13;7.65;;;3.47;;
5414;SDS011;2730;51.512;7.504;2022-12-18T07:11:40;4.30;;;2.60;;
5414;SDS011;2730;51.512;7.504;2022-12-18T07:14:07;16.23;;;6.88;;
5414;SDS011;2730;51.512;7.504;2022-12-18T07:16:33;12.95;;;6.25;;
5414;SDS011;2730;51.512;7.504;2022-12-18T07:19:00;7.28;;;3.90;;
5414;SDS011;2730;51.512;7.504;2022-12-18T07:21:27;7.18;;;4.65;;
5414;SDS011;2730;51.512;7.504;2022-12-18T07:23:54;8.15;;;2.65;;
5414;SDS011;2730;51.512;7.504;2022-12-18T07:26:22;2.80;;;2.58;;
5414;SDS011;2730;51.512;7.504;2022-12-18T07:28:49;1.70;;;1.60;;
5414;SDS011;2730;51.512;7.504;2022-12-18T07:31:16;4.90;;;1.90;;
5414;SDS011;2730;51.512;7.504;2022-12-18T07:33:44;3.47;;;2.67;;
5414;SDS011;2730;51.512;7.504;2022-12-18T07:36:11;3.30;;;2.47;;
5414;SDS011;2730;51.512;7.504;2022-12-18T07:38:39;3.00;;;1.85;;
5414;SDS011;2730;51.512;7.504;2022-12-18T07:41:07;2.08;;;1.77;;
5414;SDS011;2730;51.512;7.504;2022-12-18T07:43:36;3.28;;;1.80;;
5414;SDS011;2730;51.512;7.504;2022-12-18T07:46:04;4.80;;;2.00;;
5414;SDS011;2730;51.512;7.504;2022-12-18T07:48:31;3.33;;;1.88;;
5414;SDS011;2730;51.512;7.504;2022-12-18T07:50:58;3.70;;;1.85;;
5414;SDS011;2730;51.512;7.504;2022-12-18T07:53:25;1.83;;;1.30;;
5414;SDS011;2730;51.512;7.504;2022-12-18T07:55:54;2.00;;;1.88;;
5414;SDS011;2730;51.512;7.504;2022-12-18T07:58:22;2.20;;;1.95;;
5414;SDS011;2730;51.512;7.504;2022-12-18T08:00:50;4.35;;;2.20;;
5414;SDS011;2730;51.512;7.504;2022-12-18T08:03:17;2.75;;;1.70;;
5414;SDS011;2730;51.512;7.504;2022-12-18T08:05:44;1.73;;;1.63;;
5414;SDS011;2730;51.512;7.504;2022-12-18T08:08:10;3.63;;;1.73;;
5414;SDS011;2730;51.512;7.504;2022-12-18T08:10:37;3.13;;;1.40;;
5414;SDS011;2730;51.512;7.504;2022-12-18T08:13:05;3.00;;;1.30;;
5414;SDS011;2730;51.512;7.504;2022-12-18T08:15:31;3.15;;;2.03;;
5414;SDS011;2730;51.512;7.504;2022-12-18T08:18:00;2.20;;;1.92;;
5414;SDS011;2730;51.512;7.504;2022-12-18T08:20:26;2.22;;;2.00;;
5414;SDS011;2730;51.512;7.504;2022-12-18T08:22:53;1.88;;;1.60;;
5414;SDS011;2730;51.512;7.504;2022-12-18T08:25:20;1.77;;;1.67;;
5414;SDS011;2730;51.512;7.504;2022-12-18T08:27:46;2.75;;;1.63;;
5414;SDS011;2730;51.512;7.504;2022-12-18T08:30:13;2.90;;;1.40;;
5414;SDS011;2730;51.512;7.504;2022-12-18T08:32:40;2.80;;;1.65;;
5414;SDS011;2730;51.512;7.504;2022-12-18T08:35:09;2.10;;;1.90;;
5414;SDS011;2730;51.512;7.504;2022-12-18T08:37:37;2.05;;;1.38;;
5414;SDS011;2730;51.512;7.504;2022-12-18T08:40:04;2.08;;;1.50;;
5414;SDS011;2730;51.512;7.504;2022-12-18T08:42:32;4.80;;;2.13;;
5414;SDS011;2730;51.512;7.504;2022-12-18T08:45:14;1.73;;;1.63;;
5414;SDS011;2730;51.512;7.504;2022-12-18T08:47:41;4.18;;;1.50;;
5414;SDS011;2730;51.512;7.504;2022-12-18T08:50:10;4.07;;;1.75;;
5414;SDS011;2730;51.512;7.504;2022-12-18T08:52:37;2.08;;;1.90;;
5414;SDS011;2730;51.512;7.504;2022-12-18T08:55:04;2.20;;;1.75;;
5414;SDS011;2730;51.512;7.504;2022-12-18T08:57:32;2.88;;;1.60;;
5414;SDS011;2730;51.512;7.504;2022-12-18T08:59:58;1.70;;;1.60;;
5414;SDS011;2730;51.512;7.504;2022-12-18T09:02:25;2.25;;;1.90;;
5414;SDS011;2730;51.512;7.504;2022-12-18T09:04:52;2.30;;;1.45;;
5414;SDS011;2730;51.512;7.504;2022-12-18T09:07:20;4.40;;;2.05;;
5414;SDS011;2730;51.512;7.504;2022-12-18T09:09:47;2.88;;;2.00;;
5414;SDS011;2730;51.512;7.504;2022-12-18T09:12:13;2.75;;;1.90;;
5414;SDS011;2730;51.512;7.504;2022-12-18T09:14:40;1.88;;;1.77;;
5414;SDS011;2730;51.512;7.504;2022-12-18T09:17:07;3.40;;;1.70;;
5414;SDS011;2730;51.512;7.504;2022-12-18T09:19:34;2.05;;;1.70;;
5414;SDS011;2730;51.512;7.504;2022-12-18T09:22:01;2.92;;;1.65;;
5414;SDS011;2730;51.512;7.504;2022-12-18T09:24:29;1.85;;;1.73;;
5414;SDS011;2730;51.512;7.504;2022-12-18T09:26:56;2.63;;;1.80;;
5414;SDS011;2730;51.512;7.504;2022-12-18T09:29:22;3.22;;;2.00;;
5414;SDS011;2730;51.512;7.504;2022-12-18T09:31:49;2.88;;;1.88;;
5414;SDS011;2730;51.512;7.504;2022-12-18T09:34:16;3.75;;;2.20;;
5414;SDS011;2730;51.512;7.504;2022-12-18T09:36:45;5.22;;;2.65;;
5414;SDS011;2730;51.512;7.504;2022-12-18T09:39:12;3.67;;;1.58;;
5414;SDS011;2730;51.512;7.504;2022-12-18T09:41:42;3.15;;;2.25;;
5414;SDS011;2730;51.512;7.504;2022-12-18T09:44:17;6.53;;;2.05;;
5414;SDS011;2730;51.512;7.504;2022-12-18T09:47:01;3.92;;;2.10;;
5414;SDS011;2730;51.512;7.504;2022-12-18T09:49:37;4.50;;;1.75;;
5414;SDS011;2730;51.512;7.504;2022-12-18T09:52:09;3.30;;;2.28;;
5414;SDS011;2730;51.512;7.504;2022-12-18T09:54:41;2.55;;;1.55;;
5414;SDS011;2730;51.512;7.504;2022-12-18T09:57:12;2.03;;;1.85;;
5414;SDS011;2730;51.512;7.504;2022-12-18T09:59:40;2.28;;;1.40;;
5414;SDS011;2730;51.512;7.504;2022-12-18T10:02:14;2.40;;;1.73;;
5414;SDS011;2730;51.512;7.504;2022-12-18T10:04:41;2.40;;;1.40;;
5414;SDS011;2730;51.512;7.504;2022-12-18T10:07:09;2.03;;;1.80;;
5414;SDS011;2730;51.512;7.504;2022-12-18T10:09:42;2.35;;;1.63;;
5414;SDS011;2730;51.512;7.504;2022-12-18T10:12:15;3.25;;;1.77;;
5414;SDS011;2730;51.512;7.504;2022-12-18T10:14:49;4.50;;;2.65;;
5414;SDS011;2730;51.512;7.504;2022-12-18T10:17:22;3.70;;;1.50;;
5414;SDS011;2730;51.512;7.504;2022-12-18T10:19:54;2.90;;;1.75;;
5414;SDS011;2730;51.512;7.504;2022-12-18T10:22:27;4.18;;;1.95;;
5414;SDS011;2730;51.512;7.504;2022-12-18T10:25:04;3.08;;;2.17;;
5414;SDS011;2730;51.512;7.504;2022-12-18T10:27:43;1.65;;;1.27;;
5414;SDS011;2730;51.512;7.504;2022-12-18T10:30:12;2.63;;;1.90;;
5414;SDS011;2730;51.512;7.504;2022-12-18T10:32:41;7.43;;;2.00;;
5414;SDS011;2730;51.512;7.504;2022-12-18T10:35:11;2.45;;;1.48;;
5414;SDS011;2730;51.512;7.504;2022-12-18T10:38:00;1.90;;;1.70;;
5414;SDS011;2730;51.512;7.504;2022-12-18T10:40:30;1.88;;;1.48;;
5414;SDS011;2730;51.512;7.504;2022-12-18T10:43:05;1.70;;;1.58;;
5414;SDS011;2730;51.512;7.504;2022-12-18T10:45:38;4.47;;;2.47;;
5414;SDS011;2730;51.512;7.504;2022-12-18T10:48:16;2.85;;;1.85;;
5414;SDS011;2730;51.512;7.504;2022-12-18T10:50:46;1.48;;;1.38;;
5414;SDS011;2730;51.512;7.504;2022-12-18T10:53:18;4.47;;;1.88;;
5414;SDS011;2730;51.512;7.504;2022-12-18T10:55:47;7.07;;;2.50;;
5414;SDS011;2730;51.512;7.504;2022-12-18T10:58:19;1.77;;;1.40;;
5414;SDS011;2730;51.512;7.504;2022-12-18T11:01:01;4.80;;;1.70;;
5414;SDS011;2730;51.512;7.504;2022-12-18T11:03:34;2.67;;;1.42;;
5414;SDS011;2730;51.512;7.504;2022-12-18T11:06:03;1.55;;;1.45;;
5414;SDS011;2730;51.512;7.504;2022-12-18T11:08:32;1.55;;;1.30;;
5414;SDS011;2730;51.512;7.504;2022-12-18T11:10:59;2.85;;;1.52;;
5414;SDS011;2730;51.512;7.504;2022-12-18T11:13:27;9.20;;;4.80;;
5414;SDS011;2730;51.512;7.504;2022-12-18T11:15:56;21.52;;;9.93;;
5414;SDS011;2730;51.512;7.504;2022-12-18T11:18:25;34.53;;;11.90;;
5414;SDS011;2730;51.512;7.504;2022-12-18T11:20:54;64.63;;;20.20;;
5414;SDS011;2730;51.512;7.504;2022-12-18T11:23:23;16.95;;;7.05;;
5414;SDS011;2730;51.512;7.504;2022-12-18T11:25:51;13.52;;;6.70;;
5414;SDS011;2730;51.512;7.504;2022-12-18T11:28:36;12.65;;;6.32;;
5414;SDS011;2730;51.512;7.504;2022-12-18T11:31:12;12.35;;;6.55;;
5414;SDS011;2730;51.512;7.504;2022-12-18T11:33:45;21.23;;;9.77;;
5414;SDS011;2730;51.512;7.504;2022-12-18T11:36:16;17.80;;;8.23;;
5414;SDS011;2730;51.512;7.504;2022-12-18T11:38:44;12.65;;;6.63;;
5414;SDS011;2730;51.512;7.504;2022-12-18T11:41:15;12.43;;;6.25;;
5414;SDS011;2730;51.512;7.504;2022-12-18T11:43:49;11.38;;;6.43;;
5414;SDS011;2730;51.512;7.504;2022-12-18T11:46:23;12.30;;;6.30;;
5414;SDS011;2730;51.512;7.504;2022-12-18T11:48:57;13.20;;;5.63;;
5414;SDS011;2730;51.512;7.504;2022-12-18T11:51:28;11.98;;;6.40;;
5414;SDS011;2730;51.512;7.504;2022-12-18T11:54:04;9.00;;;6.07;;
5414;SDS011;2730;51.512;7.504;2022-12-18T11:56:39;10.75;;;6.25;;
5414;SDS011;2730;51.512;7.504;2022-12-18T11:59:15;13.30;;;6.45;;
5414;SDS011;2730;51.512;7.504;2022-12-18T12:01:48;11.13;;;4.65;;
5414;SDS011;2730;51.512;7.504;2022-12-18T12:07:22;8.82;;;5.82;;
5414;SDS011;2730;51.512;7.504;2022-12-18T12:10:00;7.80;;;4.90;;
5414;SDS011;2730;51.512;7.504;2022-12-18T12:12:38;8.32;;;5.88;;
5414;SDS011;2730;51.512;7.504;2022-12-18T12:15:19;12.18;;;7.10;;
5414;SDS011;2730;51.512;7.504;2022-12-18T12:17:54;10.85;;;6.10;;
5414;SDS011;2730;51.512;7.504;2022-12-18T12:20:39;14.23;;;6.35;;
5414;SDS011;2730;51.512;7.504;2022-12-18T12:23:14;11.75;;;6.78;;
5414;SDS011;2730;51.512;7.504;2022-12-18T12:25:49;13.02;;;6.55;;
5414;SDS011;2730;51.512;7.504;2022-12-18T12:28:27;10.43;;;6.25;;
5414;SDS011;2730;51.512;7.504;2022-12-18T12:31:11;13.77;;;7.07;;
5414;SDS011;2730;51.512;7.504;2022-12-18T12:33:47;13.95;;;5.68;;
5414;SDS011;2730;51.512;7.504;2022-12-18T12:36:21;11.10;;;6.10;;
5414;SDS011;2730;51.512;7.504;2022-12-18T12:38:57;10.90;;;5.78;;
5414;SDS011;2730;51.512;7.504;2022-12-18T12:41:27;9.70;;;5.95;;
5414;SDS011;2730;51.512;7.504;2022-12-18T12:44:16;18.90;;;7.75;;
5414;SDS011;2730;51.512;7.504;2022-12-18T12:46:49;20.45;;;9.35;;
5414;SDS011;2730;51.512;7.504;2022-12-18T12:49:21;15.70;;;7.80;;
5414;SDS011;2730;51.512;7.504;2022-12-18T12:51:53;11.60;;;6.65;;
5414;SDS011;2730;51.512;7.504;2022-12-18T12:54:26;16.98;;;6.63;;
5414;SDS011;2730;51.512;7.504;2022-12-18T12:56:54;15.35;;;6.50;;
5414;SDS011;2730;51.512;7.504;2022-12-18T12:59:29;12.52;;;7.78;;
5414;SDS011;2730;51.512;7.504;2022-12-18T13:02:10;10.90;;;6.82;;
5414;SDS011;2730;51.512;7.504;2022-12-18T13:04:47;14.05;;;7.35;;
5414;SDS011;2730;51.512;7.504;2022-12-18T13:07:18;12.43;;;7.00;;
5414;SDS011;2730;51.512;7.504;2022-12-18T13:12:50;17.67;;;7.53;;
5414;SDS011;2730;51.512;7.504;2022-12-18T13:15:23;8.95;;;6.15;;
5414;SDS011;2730;51.512;7.504;2022-12-18T13:20:48;10.55;;;6.50;;
5414;SDS011;2730;51.512;7.504;2022-12-18T13:29:00;11.05;;;6.25;;
5414;SDS011;2730;51.512;7.504;2022-12-18T13:34:30;12.20;;;6.25;;
5414;SDS011;2730;51.512;7.504;2022-12-18T13:43:15;11.93;;;7.35;;
5414;SDS011;2730;51.512;7.504;2022-12-18T13:45:49;12.63;;;6.45;;
5414;SDS011;2730;51.512;7.504;2022-12-18T13:48:27;13.60;;;6.85;;
5414;SDS011;2730;51.512;7.504;2022-12-18T13:50:58;20.92;;;8.68;;
5414;SDS011;2730;51.512;7.504;2022-12-18T13:53:29;14.10;;;7.78;;
5414;SDS011;2730;51.512;7.504;2022-12-18T13:55:59;11.20;;;6.32;;
5414;SDS011;2730;51.512;7.504;2022-12-18T13:58:26;9.85;;;6.30;;
5414;SDS011;2730;51.512;7.504;2022-12-18T14:00:53;20.27;;;7.80;;
5414;SDS011;2730;51.512;7.504;2022-12-18T14:03:22;13.30;;;6.85;;
5414;SDS011;2730;51.512;7.504;2022-12-18T14:06:00;16.67;;;8.10;;
5414;SDS011;2730;51.512;7.504;2022-12-18T14:08:34;13.23;;;7.07;;
5414;SDS011;2730;51.512;7.504;2022-12-18T14:11:04;14.68;;;7.45;;
5414;SDS011;2730;51.512;7.504;2022-12-18T14:13:33;14.73;;;7.93;;
5414;SDS011;2730;51.512;7.504;2022-12-18T14:16:03;17.45;;;8.00;;
5414;SDS011;2730;51.512;7.504;2022-12-18T14:18:34;13.23;;;7.80;;
5414;SDS011;2730;51.512;7.504;2022-12-18T14:21:14;18.95;;;8.20;;
5414;SDS011;2730;51.512;7.504;2022-12-18T14:23:47;20.00;;;8.82;;
5414;SDS011;2730;51.512;7.504;2022-12-18T14:26:21;14.70;;;7.32;;
5414;SDS011;2730;51.512;7.504;2022-12-18T14:28:52;16.52;;;8.25;;
5414;SDS011;2730;51.512;7.504;2022-12-18T14:31:20;15.35;;;8.85;;
5414;SDS011;2730;51.512;7.504;2022-12-18T14:33:48;17.52;;;9.30;;
5414;SDS011;2730;51.512;7.504;2022-12-18T14:36:18;21.88;;;8.10;;
5414;SDS011;2730;51.512;7.504;2022-12-18T14:38:48;13.57;;;8.15;;
5414;SDS011;2730;51.512;7.504;2022-12-18T14:41:16;17.15;;;9.10;;
5414;SDS011;2730;51.512;7.504;2022-12-18T14:43:45;10.68;;;6.80;;
5414;SDS011;2730;51.512;7.504;2022-12-18T14:46:27;16.48;;;7.95;;
5414;SDS011;2730;51.512;7.504;2022-12-18T14:48:56;12.75;;;6.70;;
5414;SDS011;2730;51.512;7.504;2022-12-18T14:51:25;19.88;;;8.73;;
5414;SDS011;2730;51.512;7.504;2022-12-18T14:53:53;16.08;;;7.80;;
5414;SDS011;2730;51.512;7.504;2022-12-18T14:56:23;21.33;;;7.85;;
5414;SDS011;2730;51.512;7.504;2022-12-18T14:58:51;14.95;;;7.82;;
5414;SDS011;2730;51.512;7.504;2022-12-18T15:01:20;15.60;;;8.60;;
5414;SDS011;2730;51.512;7.504;2022-12-18T15:03:50;16.13;;;9.63;;
5414;SDS011;2730;51.512;7.504;2022-12-18T15:06:21;22.55;;;9.98;;
5414;SDS011;2730;51.512;7.504;2022-12-18T15:08:53;16.00;;;8.68;;
5414;SDS011;2730;51.512;7.504;2022-12-18T15:11:28;20.90;;;8.43;;
5414;SDS011;2730;51.512;7.504;2022-12-18T15:16:59;15.07;;;9.50;;
5414;SDS011;2730;51.512;7.504;2022-12-18T15:19:32;15.95;;;9.27;;
5414;SDS011;2730;51.512;7.504;2022-12-18T15:22:11;16.55;;;10.10;;
5414;SDS011;2730;51.512;7.504;2022-12-18T15:24:43;63.72;;;21.15;;
5414;SDS011;2730;51.512;7.504;2022-12-18T15:27:19;108.43;;;33.30;;
5414;SDS011;2730;51.512;7.504;2022-12-18T15:29:58;80.43;;;25.30;;
5414;SDS011;2730;51.512;7.504;2022-12-18T15:32:26;37.30;;;15.50;;
5414;SDS011;2730;51.512;7.504;2022-12-18T15:35:01;38.53;;;15.60;;
5414;SDS011;2730;51.512;7.504;2022-12-18T15:37:38;45.65;;;17.70;;
5414;SDS011;2730;51.512;7.504;2022-12-18T15:40:06;78.53;;;23.02;;
5414;SDS011;2730;51.512;7.504;2022-12-18T15:42:34;52.75;;;15.35;;
5414;SDS011;2730;51.512;7.504;2022-12-18T15:45:18;63.00;;;24.08;;
5414;SDS011;2730;51.512;7.504;2022-12-18T15:47:45;120.18;;;38.25;;
5414;SDS011;2730;51.512;7.504;2022-12-18T15:50:12;76.68;;;24.77;;
5414;SDS011;2730;51.512;7.504;2022-12-18T15:52:40;67.72;;;23.75;;
5414;SDS011;2730;51.512;7.504;2022-12-18T15:55:10;68.30;;;24.15;;
5414;SDS011;2730;51.512;7.504;2022-12-18T15:57:54;33.90;;;13.38;;
5414;SDS011;2730;51.512;7.504;2022-12-18T16:00:21;14.32;;;7.30;;
5414;SDS011;2730;51.512;7.504;2022-12-18T16:02:48;8.93;;;5.63;;
5414;SDS011;2730;51.512;7.504;2022-12-18T16:05:15;7.85;;;4.50;;
5414;SDS011;2730;51.512;7.504;2022-12-18T16:07:45;9.68;;;5.80;;
5414;SDS011;2730;51.512;7.504;2022-12-18T16:10:12;12.35;;;6.60;;
5414;SDS011;2730;51.512;7.504;2022-12-18T16:12:40;14.57;;;6.65;;
5414;SDS011;2730;51.512;7.504;2022-12-18T16:15:08;8.90;;;5.32;;
5414;SDS011;2730;51.512;7.504;2022-12-18T16:17:38;13.02;;;5.55;;
5414;SDS011;2730;51.512;7.504;2022-12-18T16:20:05;12.95;;;5.95;;
5414;SDS011;2730;51.512;7.504;2022-12-18T16:22:37;13.65;;;6.22;;
5414;SDS011;2730;51.512;7.504;2022-12-18T16:25:08;13.77;;;6.20;;
5414;SDS011;2730;51.512;7.504;2022-12-18T16:27:42;11.82;;;5.97;;
5414;SDS011;2730;51.512;7.504;2022-12-18T16:30:12;8.25;;;5.13;;
5414;SDS011;2730;51.512;7.504;2022-12-18T16:32:39;17.95;;;6.90;;
5414;SDS011;2730;51.512;7.504;2022-12-18T16:35:08;14.05;;;6.43;;
5414;SDS011;2730;51.512;7.504;2022-12-18T16:37:35;17.25;;;7.13;;
5414;SDS011;2730;51.512;7.504;2022-12-18T16:40:03;12.20;;;5.40;;
5414;SDS011;2730;51.512;7.504;2022-12-18T16:42:32;13.50;;;6.30;;
5414;SDS011;2730;51.512;7.504;2022-12-18T16:44:58;11.40;;;6.50;;
5414;SDS011;2730;51.512;7.504;2022-12-18T16:47:25;16.35;;;6.35;;
5414;SDS011;2730;51.512;7.504;2022-12-18T16:49:52;15.43;;;6.80;;
5414;SDS011;2730;51.512;7.504;2022-12-18T16:52:19;12.02;;;6.68;;
5414;SDS011;2730;51.512;7.504;2022-12-18T16:54:47;14.35;;;6.20;;
5414;SDS011;2730;51.512;7.504;2022-12-18T16:57:14;14.57;;;7.07;;
5414;SDS011;2730;51.512;7.504;2022-12-18T16:59:44;16.33;;;6.78;;
5414;SDS011;2730;51.512;7.504;2022-12-18T17:02:11;13.50;;;6.60;;
5414;SDS011;2730;51.512;7.504;2022-12-18T17:04:39;12.45;;;6.57;;
5414;SDS011;2730;51.512;7.504;2022-12-18T17:07:06;14.70;;;6.20;;
5414;SDS011;2730;51.512;7.504;2022-12-18T17:09:33;16.92;;;7.20;;
5414;SDS011;2730;51.512;7.504;2022-12-18T17:12:00;18.23;;;8.05;;
5414;SDS011;2730;51.512;7.504;2022-12-18T17:14:27;17.33;;;7.47;;
5414;SDS011;2730;51.512;7.504;2022-12-18T17:16:55;16.88;;;6.75;;
5414;SDS011;2730;51.512;7.504;2022-12-18T17:19:24;19.10;;;9.00;;
5414;SDS011;2730;51.512;7.504;2022-12-18T17:21:51;19.40;;;8.60;;
5414;SDS011;2730;51.512;7.504;2022-12-18T17:24:19;17.00;;;7.47;;
5414;SDS011;2730;51.512;7.504;2022-12-18T17:26:46;18.10;;;7.97;;
5414;SDS011;2730;51.512;7.504;2022-12-18T17:29:14;19.25;;;8.82;;
5414;SDS011;2730;51.512;7.504;2022-12-18T17:31:42;20.92;;;8.57;;
5414;SDS011;2730;51.512;7.504;2022-12-18T17:34:10;26.48;;;9.05;;
5414;SDS011;2730;51.512;7.504;2022-12-18T17:36:38;18.17;;;7.97;;
5414;SDS011;2730;51.512;7.504;2022-12-18T17:39:05;19.15;;;8.13;;
5414;SDS011;2730;51.512;7.504;2022-12-18T17:41:33;18.58;;;7.97;;
5414;SDS011;2730;51.512;7.504;2022-12-18T17:44:01;17.33;;;8.52;;
5414;SDS011;2730;51.512;7.504;2022-12-18T17:46:29;22.80;;;8.63;;
5414;SDS011;2730;51.512;7.504;2022-12-18T17:48:58;16.92;;;8.73;;
5414;SDS011;2730;51.512;7.504;2022-12-18T17:51:28;19.77;;;9.40;;
5414;SDS011;2730;51.512;7.504;2022-12-18T17:53:55;17.70;;;8.75;;
5414;SDS011;2730;51.512;7.504;2022-12-18T17:56:23;18.92;;;8.73;;
5414;SDS011;2730;51.512;7.504;2022-12-18T17:58:50;17.98;;;9.65;;
5414;SDS011;2730;51.512;7.504;2022-12-18T18:01:17;27.35;;;8.35;;
5414;SDS011;2730;51.512;7.504;2022-12-18T18:03:47;34.10;;;11.25;;
5414;SDS011;2730;51.512;7.504;2022-12-18T18:06:14;26.83;;;10.55;;
5414;SDS011;2730;51.512;7.504;2022-12-18T18:08:42;25.02;;;9.77;;
5414;SDS011;2730;51.512;7.504;2022-12-18T18:11:10;21.70;;;10.15;;
5414;SDS011;2730;51.512;7.504;2022-12-18T18:13:56;22.00;;;9.38;;
5414;SDS011;2730;51.512;7.504;2022-12-18T18:16:25;22.67;;;8.70;;
5414;SDS011;2730;51.512;7.504;2022-12-18T18:18:55;19.80;;;9.05;;
5414;SDS011;2730;51.512;7.504;2022-12-18T18:21:23;18.48;;;10.05;;
5414;SDS011;2730;51.512;7.504;2022-12-18T18:23:51;17.95;;;7.95;;
5414;SDS011;2730;51.512;7.504;2022-12-18T18:26:18;19.73;;;8.77;;
5414;SDS011;2730;51.512;7.504;2022-12-18T18:28:46;26.80;;;9.90;;
5414;SDS011;2730;51.512;7.504;2022-12-18T18:31:13;20.98;;;9.88;;
5414;SDS011;2730;51.512;7.504;2022-12-18T18:36:10;21.30;;;9.50;;
5414;SDS011;2730;51.512;7.504;2022-12-18T18:38:37;22.48;;;9.88;;
5414;SDS011;2730;51.512;7.504;2022-12-18T18:41:06;20.90;;;9.18;;
5414;SDS011;2730;51.512;7.504;2022-12-18T18:43:33;23.38;;;10.05;;
5414;SDS011;2730;51.512;7.504;2022-12-18T18:46:00;24.10;;;10.73;;
5414;SDS011;2730;51.512;7.504;2022-12-18T18:48:30;21.63;;;9.57;;
5414;SDS011;2730;51.512;7.504;2022-12-18T18:51:00;24.63;;;11.93;;
5414;SDS011;2730;51.512;7.504;2022-12-18T18:53:28;26.55;;;10.35;;
5414;SDS011;2730;51.512;7.504;2022-12-18T18:55:59;21.33;;;8.82;;
5414;SDS011;2730;51.512;7.504;2022-12-18T18:58:27;22.92;;;9.15;;
5414;SDS011;2730;51.512;7.504;2022-12-18T19:00:55;23.50;;;10.65;;
5414;SDS011;2730;51.512;7.504;2022-12-18T19:03:22;22.42;;;10.30;;
5414;SDS011;2730;51.512;7.504;2022-12-18T19:05:51;26.92;;;10.02;;
5414;SDS011;2730;51.512;7.504;2022-12-18T19:08:19;28.98;;;10.65;;
5414;SDS011;2730;51.512;7.504;2022-12-18T19:10:49;27.00;;;9.27;;
5414;SDS011;2730;51.512;7.504;2022-12-18T19:13:17;28.95;;;11.05;;
5414;SDS011;2730;51.512;7.504;2022-12-18T19:15:50;20.23;;;9.65;;
5414;SDS011;2730;51.512;7.504;2022-12-18T19:18:19;23.25;;;9.80;;
5414;SDS011;2730;51.512;7.504;2022-12-18T19:20:53;26.55;;;10.40;;
5414;SDS011;2730;51.512;7.504;2022-12-18T19:23:21;24.77;;;10.00;;
5414;SDS011;2730;51.512;7.504;2022-12-18T19:25:49;30.42;;;11.30;;
5414;SDS011;2730;51.512;7.504;2022-12-18T19:28:16;28.75;;;11.45;;
5414;SDS011;2730;51.512;7.504;2022-12-18T19:30:43;22.88;;;9.57;;
5414;SDS011;2730;51.512;7.504;2022-12-18T19:33:11;26.70;;;10.32;;
5414;SDS011;2730;51.512;7.504;2022-12-18T19:35:38;30.42;;;10.25;;
5414;SDS011;2730;51.512;7.504;2022-12-18T19:38:05;25.30;;;10.90;;
5414;SDS011;2730;51.512;7.504;2022-12-18T19:40:32;21.95;;;9.95;;
5414;SDS011;2730;51.512;7.504;2022-12-18T19:42:58;25.80;;;10.65;;
5414;SDS011;2730;51.512;7.504;2022-12-18T19:45:25;25.85;;;10.70;;
5414;SDS011;2730;51.512;7.504;2022-12-18T19:47:52;21.73;;;9.73;;
5414;SDS011;2730;51.512;7.504;2022-12-18T19:50:20;23.60;;;10.35;;
5414;SDS011;2730;51.512;7.504;2022-12-18T19:52:47;30.50;;;11.40;;
5414;SDS011;2730;51.512;7.504;2022-12-18T19:55:14;21.58;;;9.98;;
5414;SDS011;2730;51.512;7.504;2022-12-18T19:57:41;27.63;;;10.00;;
5414;SDS011;2730;51.512;7.504;2022-12-18T20:00:08;26.38;;;10.20;;
5414;SDS011;2730;51.512;7.504;2022-12-18T20:02:36;28.23;;;10.02;;
5414;SDS011;2730;51.512;7.504;2022-12-18T20:05:04;26.00;;;10.10;;
5414;SDS011;2730;51.512;7.504;2022-12-18T20:07:34;24.17;;;10.13;;
5414;SDS011;2730;51.512;7.504;2022-12-18T20:10:01;25.52;;;9.77;;
5414;SDS011;2730;51.512;7.504;2022-12-18T20:12:29;22.58;;;10.52;;
5414;SDS011;2730;51.512;7.504;2022-12-18T20:14:56;24.92;;;11.48;;
5414;SDS011;2730;51.512;7.504;2022-12-18T20:17:23;24.65;;;10.57;;
5414;SDS011;2730;51.512;7.504;2022-12-18T20:19:49;28.15;;;11.40;;
5414;SDS011;2730;51.512;7.504;2022-12-18T20:22:16;39.30;;;11.70;;
5414;SDS011;2730;51.512;7.504;2022-12-18T20:24:44;27.13;;;10.43;;
5414;SDS011;2730;51.512;7.504;2022-12-18T20:27:11;23.50;;;9.80;;
5414;SDS011;2730;51.512;7.504;2022-12-18T20:29:38;21.50;;;9.40;;
5414;SDS011;2730;51.512;7.504;2022-12-18T20:32:07;27.75;;;9.85;;
5414;SDS011;2730;51.512;7.504;2022-12-18T20:34:34;25.60;;;11.10;;
5414;SDS011;2730;51.512;7.504;2022-12-18T20:37:01;27.52;;;11.15;;
5414;SDS011;2730;51.512;7.504;2022-12-18T20:39:28;28.55;;;11.23;;
5414;SDS011;2730;51.512;7.504;2022-12-18T20:41:56;23.25;;;9.85;;
5414;SDS011;2730;51.512;7.504;2022-12-18T20:44:23;27.48;;;9.90;;
5414;SDS011;2730;51.512;7.504;2022-12-18T20:46:51;21.20;;;9.27;;
5414;SDS011;2730;51.512;7.504;2022-12-18T20:49:19;26.55;;;11.10;;
5414;SDS011;2730;51.512;7.504;2022-12-18T20:51:48;22.48;;;9.80;;
5414;SDS011;2730;51.512;7.504;2022-12-18T20:54:16;24.13;;;9.93;;
5414;SDS011;2730;51.512;7.504;2022-12-18T20:56:44;24.42;;;9.68;;
5414;SDS011;2730;51.512;7.504;2022-12-18T20:59:12;28.15;;;10.50;;
5414;SDS011;2730;51.512;7.504;2022-12-18T21:01:39;21.65;;;10.05;;
5414;SDS011;2730;51.512;7.504;2022-12-18T21:04:06;29.05;;;10.23;;
5414;SDS011;2730;51.512;7.504;2022-12-18T21:06:33;27.17;;;9.77;;
5414;SDS011;2730;51.512;7.504;2022-12-18T21:09:00;26.98;;;10.55;;
5414;SDS011;2730;51.512;7.504;2022-12-18T21:11:28;28.85;;;11.13;;
5414;SDS011;2730;51.512;7.504;2022-12-18T21:14:15;32.33;;;10.85;;
5414;SDS011;2730;51.512;7.504;2022-12-18T21:16:44;28.25;;;10.07;;
5414;SDS011;2730;51.512;7.504;2022-12-18T21:19:12;24.70;;;9.45;;
5414;SDS011;2730;51.512;7.504;2022-12-18T21:21:40;22.73;;;10.18;;
5414;SDS011;2730;51.512;7.504;2022-12-18T21:24:07;25.60;;;8.73;;
5414;SDS011;2730;51.512;7.504;2022-12-18T21:26:35;25.10;;;10.55;;
5414;SDS011;2730;51.512;7.504;2022-12-18T21:29:03;21.92;;;10.40;;
5414;SDS011;2730;51.512;7.504;2022-12-18T21:31:34;26.33;;;10.55;;
5414;SDS011;2730;51.512;7.504;2022-12-18T21:34:02;26.67;;;12.60;;
5414;SDS011;2730;51.512;7.504;2022-12-18T21:36:29;22.40;;;10.25;;
5414;SDS011;2730;51.512;7.504;2022-12-18T21:38:57;24.92;;;10.48;;
5414;SDS011;2730;51.512;7.504;2022-12-18T21:41:25;27.80;;;11.50;;
5414;SDS011;2730;51.512;7.504;2022-12-18T21:44:11;24.92;;;9.25;;
5414;SDS011;2730;51.512;7.504;2022-12-18T21:46:41;28.40;;;10.95;;